Aérodrome :
LOGIN :

S'inscrire | Disclaimer

   EN    FR    IT 

 










Légende :    VFR   VFR Marginal   IFR   IFR Intensif   IFR Très Intensif
Visi : 
Plafond : 
>= 8 km
>= 3000ft
5 à 8 km
1000 à 3000 ft
1500m à 5 km
500 à 1000 ft
800 à 1500m
200 à 500 ft
< 800m
< 200 ft
Symboles :   Orages  Brouillard  Fortes neiges  Fortes précipitations  Vent > 20 kt
SIGMETs :   Divers  Orages  Givrage  Turbulence  Onde Orograph.  Cendres Volcan.







- Altitude de l'aérodrome : 13 ft
- Code IATA : GOA


LIMJ - Genoa Cristoforo Colombo

DERNIER METAR :
  • 210050Z 05008KT 020V080 9999 FEW035 18/11 Q1014

METARs EXPIRÉS :
  • 210020Z 05007KT 010V090 9999 FEW035 19/11 Q1014
  • 202350Z 04005KT 340V110 9999 FEW035 19/11 Q1014
  • 202320Z 04005KT 360V090 9999 FEW035 19/12 Q1014
  • 202250Z 04007KT 010V070 9999 FEW035 19/12 Q1015
  • 202220Z 04007KT 010V080 9999 FEW035 20/12 Q1014

TAF TAF LIMJ
Valide du 21 à 00h jusqu'au 22 à 00h UTC


202300Z 2100/2124 03015KT 9999 SCT030
TEMPO 2112/2118 4000 TSRA
Pas de NOTAMs connus pour ce terrain.
2 SIGMETs publiés pour la FIR Milano (LIMM) :
 
Orages noyés dans la masse
LIMM SIGMET 3 VALID 202105/210105 LIIP
LIMM MILANO FIR EMBD TS OBS WI N4606 E00903 - N4625 E00827 - N4553 E00645 - N4406 E00652 - N4359 E00733 - N4429 E00847 - N4442 E00916 - N4606 E00903 TOP FL320 STNR NC=
Orages noyés dans la masse
LIMM SIGMET 1 VALID 210105/210505 LIIP
LIMM MILANO FIR EMBD TS FCST WI N4606 E00903 - N4625 E00827 - N4553 E00645 - N4406 E00652 - N4359 E00733 - N4429 E00847 - N4442 E00916 - N4606 E00903 TOP FL320 STNR NC=



MET'MAP, la Météo Aéronautique d'un coup d'oeil ! - Copyright ORBIFLY Décembre 2007 - Disclaimer

ORBIFLY MET'MAP TEAM :

Programmation & Développement : Alexandra Zaïnal
Conception & Développement : Baudouin d'Aumeries
Co-Programmation & Développement : Marc-Olivier Méhu
Soutien technique & logistique : Manuel Goepfert

Contact : metmap@orbifly.com




SOURCES & CREDITS :

   NOAA